Time;durP1;ratioP1;P1;durP2;ratioP2;P2;SDS_P1;SDS_P2;PMS_P1;PMS_P2;Temp;Humidity;BMP_temperature;BMP_pressure;BME280_temperature;BME280_humidity;BME280_pressure;Samples;Min_cycle;Max_cycle;Signal;HPM_P1;HPM_P2
2021/03/18 00:01:11;;;;;;;4.85;2.70;;;4.20;98.00;;;;;;4881208;29;20032;-62
2021/03/18 00:03:38;;;;;;;7.88;2.40;;;4.10;97.90;;;;;;4897355;29;20035;-62
2021/03/18 00:06:05;;;;;;;2.92;2.03;;;4.10;98.40;;;;;;4897853;29;20036;-62
2021/03/18 00:08:31;;;;;;;7.32;2.30;;;4.00;98.20;;;;;;4880563;29;20047;-63
2021/03/18 00:10:58;;;;;;;6.50;2.55;;;4.10;98.50;;;;;;4897991;29;20463;-63
2021/03/18 00:13:27;;;;;;;3.97;2.35;;;4.10;98.20;;;;;;4897284;29;20040;-67
2021/03/18 00:15:52;;;;;;;12.10;2.97;;;4.10;99.10;;;;;;4897676;29;20487;-62
2021/03/18 00:18:20;;;;;;;10.02;2.58;;;4.10;99.10;;;;;;4880723;29;20033;-62
2021/03/18 00:20:47;;;;;;;6.93;2.80;;;4.00;98.30;;;;;;4880070;29;20119;-62
2021/03/18 00:23:12;;;;;;;2.58;1.92;;;4.00;98.70;;;;;;4897441;29;20040;-62
2021/03/18 00:25:38;;;;;;;3.03;1.73;;;4.00;98.50;;;;;;4879643;29;20033;-63
2021/03/18 00:28:05;;;;;;;6.85;1.98;;;3.90;98.70;;;;;;4897107;29;20040;-63
2021/03/18 00:30:31;;;;;;;4.20;2.65;;;3.90;98.90;;;;;;4880125;29;20115;-63
2021/03/18 00:32:57;;;;;;;5.57;2.70;;;3.90;98.50;;;;;;4880024;29;20139;-62
2021/03/18 00:35:23;;;;;;;5.82;2.30;;;3.80;98.70;;;;;;4897271;29;20467;-65
2021/03/18 00:37:51;;;;;;;7.05;3.30;;;3.80;98.90;;;;;;4880224;29;20037;-62
2021/03/18 00:40:24;;;;;;;6.03;2.55;;;3.90;99.00;;;;;;4880568;29;20032;-62
2021/03/18 00:42:59;;;;;;;10.13;3.28;;;3.80;98.90;;;;;;4896913;29;20439;-62
2021/03/18 00:45:28;;;;;;;8.50;2.33;;;3.90;99.30;;;;;;4896907;29;20339;-66
2021/03/18 00:47:54;;;;;;;5.45;2.30;;;3.80;99.40;;;;;;4896355;29;20091;-63
2021/03/18 00:50:24;;;;;;;6.55;3.22;;;3.90;99.60;;;;;;4880558;29;20024;-62
2021/03/18 00:52:49;;;;;;;7.85;2.67;;;3.80;99.90;;;;;;4879728;29;20367;-62
2021/03/18 00:55:15;;;;;;;9.85;3.40;;;3.80;99.80;;;;;;4897166;29;20036;-63
2021/03/18 00:57:41;;;;;;;11.93;4.20;;;3.90;99.90;;;;;;4896386;29;20039;-62
2021/03/18 01:00:15;;;;;;;11.80;3.65;;;3.90;99.90;;;;;;4879773;29;20463;-62
2021/03/18 01:02:41;;;;;;;10.60;3.72;;;3.80;99.60;;;;;;4879305;29;20056;-62
2021/03/18 01:05:12;;;;;;;10.40;3.38;;;3.80;99.60;;;;;;4888462;29;20459;-62
2021/03/18 01:07:40;;;;;;;6.97;3.50;;;3.80;99.90;;;;;;4878115;29;20033;-62
2021/03/18 01:10:08;;;;;;;6.55;3.13;;;3.80;99.90;;;;;;4860933;29;20057;-62
2021/03/18 01:12:34;;;;;;;12.23;3.83;;;3.70;99.90;;;;;;4877342;29;20116;-62
2021/03/18 01:15:00;;;;;;;7.80;3.38;;;3.80;99.90;;;;;;4877891;29;20105;-62
2021/03/18 01:17:25;;;;;;;7.20;3.63;;;3.70;99.70;;;;;;4876299;29;20037;-67
2021/03/18 01:19:51;;;;;;;5.82;2.90;;;3.70;99.70;;;;;;4860850;29;20033;-62
2021/03/18 01:22:17;;;;;;;11.43;3.60;;;3.60;99.90;;;;;;4860821;29;20471;-62
2021/03/18 01:24:42;;;;;;;9.50;3.95;;;3.60;99.90;;;;;;4860499;29;20029;-63
2021/03/18 01:27:08;;;;;;;5.90;3.35;;;3.60;99.90;;;;;;4876545;29;20530;-63
2021/03/18 01:29:34;;;;;;;8.45;2.63;;;3.50;99.90;;;;;;4860603;29;20029;-63
2021/03/18 01:32:00;;;;;;;7.13;2.10;;;3.50;99.90;;;;;;4877831;29;20056;-63
2021/03/18 01:34:26;;;;;;;4.22;2.08;;;3.50;99.90;;;;;;4863340;29;20495;-63
2021/03/18 01:36:51;;;;;;;4.18;2.63;;;3.50;99.90;;;;;;4896011;29;20039;-62
2021/03/18 01:39:17;;;;;;;6.03;2.75;;;3.40;99.90;;;;;;4879616;29;20029;-62
2021/03/18 01:41:42;;;;;;;4.28;2.83;;;3.40;99.90;;;;;;4895612;29;20077;-63
2021/03/18 01:44:08;;;;;;;5.13;3.15;;;3.40;99.90;;;;;;4878938;29;20395;-62
2021/03/18 01:46:34;;;;;;;3.85;2.90;;;3.40;99.90;;;;;;4895459;29;20036;-63
2021/03/18 01:49:00;;;;;;;5.75;3.10;;;3.40;99.90;;;;;;4878763;29;20033;-62
2021/03/18 01:51:26;;;;;;;6.22;2.53;;;3.40;99.90;;;;;;4896206;29;20028;-61
2021/03/18 01:53:52;;;;;;;7.57;2.72;;;3.40;99.90;;;;;;4894843;29;20128;-62
2021/03/18 01:56:18;;;;;;;4.53;2.13;;;3.30;99.90;;;;;;4878688;29;20033;-62
2021/03/18 01:58:46;;;;;;;6.05;2.30;;;3.30;99.90;;;;;;4877870;29;20028;-63
2021/03/18 02:01:13;;;;;;;20.35;3.88;;;3.40;99.90;;;;;;4896043;29;20111;-62
2021/03/18 02:03:39;;;;;;;14.95;2.97;;;3.30;99.90;;;;;;4895171;29;20068;-61
2021/03/18 02:06:05;;;;;;;7.22;3.15;;;3.30;99.90;;;;;;4895662;29;20443;-61
2021/03/18 02:08:31;;;;;;;6.25;2.80;;;3.30;99.90;;;;;;4878549;29;20408;-62
2021/03/18 02:10:57;;;;;;;4.82;2.00;;;3.30;99.90;;;;;;4895666;29;20522;-62
2021/03/18 02:13:23;;;;;;;4.15;2.63;;;3.40;99.90;;;;;;4879253;29;20036;-62
2021/03/18 02:15:51;;;;;;;4.80;2.72;;;3.40;99.90;;;;;;4878390;29;20240;-61
2021/03/18 02:18:23;;;;;;;5.82;2.35;;;3.40;99.90;;;;;;4878830;29;20029;-62
2021/03/18 02:21:09;;;;;;;10.35;2.50;;;3.30;99.90;;;;;;4895053;29;20767;-61
2021/03/18 02:24:10;;;;;;;5.20;2.08;;;3.30;99.90;;;;;;4877986;29;20088;-62
2021/03/18 02:26:38;;;;;;;4.63;2.25;;;3.40;99.90;;;;;;4877925;29;20029;-62
2021/03/18 02:29:10;;;;;;;5.22;2.22;;;3.50;99.90;;;;;;4895809;29;20039;-62
2021/03/18 02:32:09;;;;;;;5.13;2.45;;;3.40;99.90;;;;;;4894972;29;20044;-61
2021/03/18 02:35:13;;;;;;;9.85;3.03;;;3.40;99.90;;;;;;4877761;29;20041;-62
2021/03/18 02:37:42;;;;;;;7.25;2.45;;;3.30;99.90;;;;;;4894681;29;20123;-61
2021/03/18 02:40:15;;;;;;;7.20;2.75;;;3.30;99.90;;;;;;4863568;29;20080;-62
2021/03/18 02:42:42;;;;;;;7.25;3.47;;;3.30;99.90;;;;;;4877579;29;20028;-62
2021/03/18 02:45:11;;;;;;;5.72;2.05;;;3.30;99.90;;;;;;4895062;29;20043;-62
2021/03/18 02:47:39;;;;;;;8.70;2.35;;;3.30;99.90;;;;;;4878087;29;20060;-62
2021/03/18 02:50:08;;;;;;;4.22;1.92;;;3.20;99.90;;;;;;4878265;29;20041;-62
2021/03/18 02:52:35;;;;;;;5.10;2.83;;;3.20;99.90;;;;;;4878001;29;20068;-66
2021/03/18 02:55:06;;;;;;;5.45;2.33;;;3.20;99.90;;;;;;4895019;29;20031;-62
2021/03/18 02:57:33;;;;;;;4.65;2.60;;;3.20;99.90;;;;;;4895117;29;20387;-68
2021/03/18 03:00:05;;;;;;;4.68;2.53;;;3.20;99.90;;;;;;4878224;29;20028;-63
2021/03/18 03:02:31;;;;;;;9.40;3.05;;;3.10;99.90;;;;;;4878739;29;20029;-64
2021/03/18 03:04:58;;;;;;;5.85;2.92;;;3.20;99.90;;;;;;4887609;29;20029;-63
2021/03/18 03:07:26;;;;;;;7.60;3.15;;;3.10;99.90;;;;;;4876994;29;20077;-62
2021/03/18 03:09:54;;;;;;;4.78;2.80;;;3.20;99.90;;;;;;4859931;29;20616;-61
2021/03/18 03:12:24;;;;;;;7.60;3.05;;;3.20;99.90;;;;;;4879108;29;20040;-62
2021/03/18 03:14:53;;;;;;;6.45;3.15;;;3.10;99.90;;;;;;4879599;29;20032;-63
2021/03/18 03:17:21;;;;;;;6.57;3.35;;;3.10;99.90;;;;;;4879041;29;20029;-63
2021/03/18 03:19:48;;;;;;;6.40;2.90;;;3.10;99.90;;;;;;4862304;29;20054;-63
2021/03/18 03:22:14;;;;;;;9.77;4.40;;;3.20;99.90;;;;;;4878818;29;20363;-62
2021/03/18 03:24:43;;;;;;;4.40;2.85;;;3.10;99.90;;;;;;4878909;29;20051;-63
2021/03/18 03:27:10;;;;;;;5.60;2.90;;;3.00;99.90;;;;;;4863046;29;20036;-62
2021/03/18 03:29:36;;;;;;;9.15;3.25;;;3.00;99.90;;;;;;4878958;29;20033;-67
2021/03/18 03:32:05;;;;;;;7.80;3.13;;;3.00;99.90;;;;;;4879783;29;20484;-62
2021/03/18 03:34:32;;;;;;;8.70;3.97;;;3.10;99.90;;;;;;4866377;29;20032;-62
2021/03/18 03:36:58;;;;;;;6.20;3.10;;;3.00;99.90;;;;;;4880587;29;20064;-63
2021/03/18 03:39:23;;;;;;;10.23;3.42;;;3.10;99.90;;;;;;4881511;29;20496;-62
2021/03/18 03:41:49;;;;;;;7.60;4.10;;;3.00;99.90;;;;;;4880703;29;20031;-62
2021/03/18 03:44:15;;;;;;;7.05;3.85;;;2.90;99.90;;;;;;4881255;29;20447;-62
2021/03/18 03:46:41;;;;;;;5.57;3.42;;;2.90;99.90;;;;;;4880700;29;20068;-62
2021/03/18 03:49:08;;;;;;;7.25;3.72;;;2.90;99.90;;;;;;4881654;29;20025;-63
2021/03/18 03:52:08;;;;;;;9.18;3.53;;;3.00;99.90;;;;;;4898278;29;20040;-62
2021/03/18 03:54:40;;;;;;;10.55;3.55;;;2.90;99.90;;;;;;4898227;29;20037;-62
2021/03/18 03:57:18;;;;;;;7.78;4.55;;;2.90;99.90;;;;;;4881694;29;20036;-62
2021/03/18 03:59:45;;;;;;;9.85;3.38;;;2.90;99.90;;;;;;4897965;29;20044;-61
2021/03/18 04:02:12;;;;;;;11.32;4.10;;;2.90;99.90;;;;;;4881434;29;20158;-62
2021/03/18 04:04:42;;;;;;;8.93;3.55;;;2.90;99.90;;;;;;4897218;29;20036;-66
2021/03/18 04:07:15;;;;;;;9.10;5.00;;;3.00;99.90;;;;;;4880848;29;20076;-62
2021/03/18 04:09:43;;;;;;;10.15;3.80;;;2.90;99.90;;;;;;4880389;29;20084;-62
2021/03/18 04:12:12;;;;;;;16.13;6.38;;;2.80;99.90;;;;;;4881355;29;20044;-61
2021/03/18 04:14:44;;;;;;;11.95;5.07;;;2.70;99.90;;;;;;4880436;29;20025;-65
2021/03/18 04:17:11;;;;;;;10.82;4.30;;;2.60;99.90;;;;;;4898198;29;20041;-62
2021/03/18 04:19:38;;;;;;;9.18;4.68;;;2.60;99.90;;;;;;4880773;29;20043;-66
2021/03/18 04:22:06;;;;;;;6.95;4.22;;;2.50;99.90;;;;;;4896590;29;20037;-62
2021/03/18 04:24:33;;;;;;;7.97;4.28;;;2.50;99.90;;;;;;4880608;29;20039;-63
2021/03/18 04:27:00;;;;;;;8.73;4.65;;;2.50;99.90;;;;;;4896926;29;20054;-62
2021/03/18 04:29:27;;;;;;;8.20;4.20;;;2.50;99.90;;;;;;4880877;29;20025;-63
2021/03/18 04:31:55;;;;;;;7.30;4.03;;;2.50;99.90;;;;;;4879860;29;20044;-62
2021/03/18 04:34:22;;;;;;;9.65;4.07;;;2.50;99.90;;;;;;4879715;29;20048;-62
2021/03/18 04:36:48;;;;;;;7.45;3.22;;;2.50;99.90;;;;;;4879889;29;20403;-62
2021/03/18 04:39:15;;;;;;;7.80;3.38;;;2.70;99.90;;;;;;4880241;29;20036;-62
2021/03/18 04:41:42;;;;;;;7.13;3.40;;;2.50;99.90;;;;;;4879428;29;20364;-67
2021/03/18 04:44:09;;;;;;;9.88;3.90;;;2.50;99.90;;;;;;4880761;29;20033;-62
2021/03/18 04:46:37;;;;;;;12.63;4.32;;;2.60;99.90;;;;;;4880607;29;20040;-62
2021/03/18 04:49:04;;;;;;;9.45;3.75;;;2.70;99.90;;;;;;4879546;29;20025;-62
2021/03/18 04:51:30;;;;;;;10.32;3.70;;;2.70;99.90;;;;;;4897185;29;20029;-62
2021/03/18 04:53:58;;;;;;;7.47;3.35;;;2.80;99.90;;;;;;4879364;29;20070;-62
2021/03/18 04:56:25;;;;;;;7.22;3.50;;;2.90;99.90;;;;;;4880487;29;20040;-62
2021/03/18 04:58:53;;;;;;;9.18;3.72;;;2.90;99.90;;;;;;4879099;29;20029;-62
2021/03/18 05:01:21;;;;;;;7.15;3.28;;;3.00;99.90;;;;;;4897231;29;20024;-62
2021/03/18 05:03:47;;;;;;;8.95;3.65;;;3.00;99.90;;;;;;4878866;29;20028;-62
2021/03/18 05:06:14;;;;;;;10.80;3.50;;;3.10;99.90;;;;;;4892931;29;20060;-62
2021/03/18 05:08:41;;;;;;;7.50;3.13;;;3.10;99.90;;;;;;4876310;29;20033;-66
2021/03/18 05:11:09;;;;;;;7.03;3.15;;;3.00;99.90;;;;;;4878155;29;20436;-63
2021/03/18 05:13:35;;;;;;;8.80;3.88;;;2.90;99.90;;;;;;4861502;29;20029;-61
2021/03/18 05:16:03;;;;;;;6.30;3.53;;;3.00;99.90;;;;;;4860698;29;20067;-62
2021/03/18 05:18:31;;;;;;;8.88;3.88;;;3.10;99.90;;;;;;4877709;29;20117;-61
2021/03/18 05:21:00;;;;;;;10.07;4.35;;;3.00;99.90;;;;;;4877080;29;20036;-62
2021/03/18 05:23:26;;;;;;;6.75;3.55;;;3.10;99.90;;;;;;4860999;29;20029;-63
2021/03/18 05:25:52;;;;;;;8.45;3.50;;;3.20;99.90;;;;;;4876897;29;20060;-61
2021/03/18 05:28:18;;;;;;;8.93;3.60;;;3.30;99.90;;;;;;4878050;29;20025;-62
2021/03/18 05:30:44;;;;;;;7.43;4.88;;;3.30;99.90;;;;;;4860121;29;20065;-66
2021/03/18 05:33:10;;;;;;;10.18;4.03;;;3.30;99.90;;;;;;4860424;29;20029;-67
2021/03/18 05:35:39;;;;;;;5.72;3.63;;;3.10;99.90;;;;;;4889156;29;20035;-63
2021/03/18 05:38:06;;;;;;;8.68;4.03;;;3.20;99.90;;;;;;4895983;29;20032;-63
2021/03/18 05:40:35;;;;;;;10.60;4.97;;;3.20;99.90;;;;;;4896374;29;20032;-62
2021/03/18 05:43:02;;;;;;;15.05;5.85;;;3.20;99.90;;;;;;4878056;29;20036;-64
2021/03/18 05:45:28;;;;;;;11.98;5.75;;;3.20;99.90;;;;;;4895827;29;20036;-62
2021/03/18 05:47:55;;;;;;;12.43;4.70;;;3.20;99.90;;;;;;4878336;29;20520;-62
2021/03/18 05:50:21;;;;;;;10.00;5.65;;;3.10;99.90;;;;;;4878231;29;20043;-64
2021/03/18 05:52:48;;;;;;;13.02;5.05;;;3.00;99.90;;;;;;4878015;29;20024;-65
2021/03/18 05:55:15;;;;;;;15.00;4.85;;;3.10;99.90;;;;;;4895631;29;20037;-62
2021/03/18 05:57:45;;;;;;;26.35;5.97;;;3.00;99.90;;;;;;4878721;29;20039;-62
2021/03/18 06:00:12;;;;;;;7.25;4.20;;;3.00;99.90;;;;;;4878874;29;20088;-62
2021/03/18 06:02:39;;;;;;;18.60;4.90;;;3.00;99.90;;;;;;4879016;29;20362;-61
2021/03/18 06:05:11;;;;;;;8.00;5.03;;;3.00;99.90;;;;;;4877917;29;20024;-62
2021/03/18 06:07:38;;;;;;;13.40;4.78;;;3.00;99.90;;;;;;4895965;29;20032;-62
2021/03/18 06:10:06;;;;;;;17.65;5.43;;;3.10;99.90;;;;;;4877820;29;20125;-62
2021/03/18 06:12:32;;;;;;;14.20;6.28;;;3.00;99.90;;;;;;4878062;29;20033;-61
2021/03/18 06:14:58;;;;;;;14.63;6.35;;;3.00;99.90;;;;;;4895119;29;20115;-62
2021/03/18 06:17:30;;;;;;;15.52;5.88;;;3.00;99.90;;;;;;4878907;29;20385;-62
2021/03/18 06:19:57;;;;;;;14.70;5.88;;;3.00;99.90;;;;;;4876971;29;20458;-62
2021/03/18 06:22:36;;;;;;;11.80;6.03;;;3.10;99.90;;;;;;4877985;29;20502;-62
2021/03/18 06:25:04;;;;;;;18.23;6.47;;;3.10;99.90;;;;;;4894396;29;20059;-61
2021/03/18 06:27:30;;;;;;;13.15;4.90;;;3.10;99.90;;;;;;4878542;29;20080;-62
2021/03/18 06:29:56;;;;;;;10.43;4.90;;;3.10;99.90;;;;;;4878033;29;20025;-62
2021/03/18 06:32:25;;;;;;;12.30;5.00;;;3.10;99.90;;;;;;4878494;29;20371;-62
2021/03/18 06:34:56;;;;;;;27.88;7.57;;;3.20;99.90;;;;;;4871456;29;20029;-62
2021/03/18 06:37:39;;;;;;;13.43;5.63;;;3.30;99.90;;;;;;4860280;29;20135;-62
2021/03/18 06:40:12;;;;;;;16.30;5.57;;;3.30;99.90;;;;;;4875941;29;20278;-62
2021/03/18 06:42:39;;;;;;;15.85;4.85;;;3.20;99.90;;;;;;4875342;29;20075;-61
2021/03/18 06:45:08;;;;;;;12.20;5.32;;;3.10;99.90;;;;;;4879817;29;20112;-62
2021/03/18 06:47:46;;;;;;;15.30;5.47;;;2.90;99.90;;;;;;4881548;29;20029;-62
2021/03/18 06:50:15;;;;;;;10.38;4.45;;;3.10;99.90;;;;;;4865942;29;20032;-63
2021/03/18 06:52:41;;;;;;;10.73;4.28;;;3.00;99.90;;;;;;4865376;29;20029;-62
2021/03/18 06:55:11;;;;;;;13.50;4.78;;;3.20;99.90;;;;;;4864570;29;20100;-63
2021/03/18 06:57:37;;;;;;;6.60;4.85;;;3.10;99.90;;;;;;4866020;29;20040;-62
2021/03/18 07:00:09;;;;;;;6.80;4.40;;;3.20;99.90;;;;;;4865024;29;20036;-63
2021/03/18 07:02:41;;;;;;;;;;;3.10;99.90;;;;;;4865662;29;20040;-63
2021/03/18 07:05:18;;;;;;;8.73;4.90;;;2.90;99.90;;;;;;4869901;29;19903;-63
2021/03/18 07:07:44;;;;;;;10.60;4.65;;;3.10;99.90;;;;;;4865789;29;20045;-63
2021/03/18 07:10:10;;;;;;;14.85;5.72;;;3.30;99.90;;;;;;4864927;29;20060;-63
2021/03/18 07:12:36;;;;;;;13.93;5.53;;;3.30;99.90;;;;;;4882654;29;20021;-62
2021/03/18 07:15:15;;;;;;;6.75;4.15;;;3.30;99.90;;;;;;4870348;29;20504;-61
2021/03/18 07:17:41;;;;;;;12.65;5.80;;;3.30;99.90;;;;;;4896578;29;20033;-63
2021/03/18 07:20:22;;;;;;;10.15;4.47;;;3.60;99.90;;;;;;4883328;29;20085;-63
2021/03/18 07:22:53;;;;;;;10.88;5.32;;;3.50;99.90;;;;;;4884117;29;20028;-66
2021/03/18 07:25:22;;;;;;;12.65;4.88;;;3.60;99.90;;;;;;4883966;29;20040;-62
2021/03/18 07:27:51;;;;;;;7.85;4.30;;;4.00;99.90;;;;;;4898119;29;20470;-67
2021/03/18 07:30:26;;;;;;;11.30;5.50;;;4.40;99.90;;;;;;4878814;29;20028;-62
2021/03/18 07:32:53;;;;;;;12.95;4.75;;;4.40;99.90;;;;;;4900571;29;20063;-64
2021/03/18 07:35:18;;;;;;;20.17;5.80;;;4.70;99.90;;;;;;4892977;29;20061;-63
2021/03/18 07:37:44;;;;;;;6.68;4.43;;;5.20;99.70;;;;;;4883950;29;20459;-64
2021/03/18 07:40:10;;;;;;;10.18;4.57;;;5.00;98.70;;;;;;4883102;29;20092;-64
2021/03/18 07:42:38;;;;;;;5.97;4.20;;;5.30;99.00;;;;;;4883919;29;20040;-64
2021/03/18 07:45:05;;;;;;;7.38;4.45;;;5.00;98.20;;;;;;4882500;29;20044;-63
2021/03/18 07:47:34;;;;;;;10.43;4.53;;;4.70;98.20;;;;;;4884094;29;20028;-64
2021/03/18 07:50:00;;;;;;;11.90;4.97;;;4.70;98.80;;;;;;4883093;29;20035;-63
2021/03/18 07:52:28;;;;;;;9.73;5.40;;;4.70;98.90;;;;;;4881085;29;20135;-64
2021/03/18 07:54:56;;;;;;;16.48;7.50;;;4.70;99.10;;;;;;4879583;29;20032;-63
2021/03/18 07:57:23;;;;;;;12.85;4.97;;;5.00;98.70;;;;;;4877505;29;20127;-62
2021/03/18 07:59:49;;;;;;;7.80;4.65;;;4.80;98.70;;;;;;4880961;29;20028;-65
2021/03/18 08:02:15;;;;;;;9.35;4.57;;;4.70;98.90;;;;;;4879911;29;20033;-63
2021/03/18 08:04:46;;;;;;;11.20;5.63;;;4.40;99.40;;;;;;4893042;29;20424;-64
2021/03/18 08:07:32;;;;;;;6.93;4.35;;;4.30;99.40;;;;;;4861494;29;20048;-63
2021/03/18 08:09:57;;;;;;;8.27;4.70;;;4.40;99.40;;;;;;4895927;29;20104;-64
2021/03/18 08:12:43;;;;;;;14.10;4.60;;;4.40;99.40;;;;;;4899286;29;20036;-63
2021/03/18 08:15:40;;;;;;;7.75;4.45;;;4.60;99.10;;;;;;4897916;29;20090;-63
2021/03/18 08:18:15;;;;;;;9.98;4.38;;;4.70;98.50;;;;;;4870840;29;20068;-63
2021/03/18 08:20:41;;;;;;;12.98;4.85;;;4.90;98.30;;;;;;4880413;29;20040;-63
2021/03/18 08:23:22;;;;;;;12.27;5.93;;;5.30;98.20;;;;;;4879896;29;20024;-62
2021/03/18 08:25:54;;;;;;;10.45;4.70;;;5.30;97.60;;;;;;4902414;29;20044;-65
2021/03/18 08:28:44;;;;;;;14.77;4.80;;;5.50;97.40;;;;;;4876425;29;20120;-65
2021/03/18 08:31:18;;;;;;;11.90;4.78;;;5.70;97.30;;;;;;4893199;29;20330;-63
2021/03/18 08:33:49;;;;;;;11.60;5.60;;;6.00;96.90;;;;;;4871288;29;20035;-62
2021/03/18 08:36:25;;;;;;;8.30;4.88;;;5.80;96.20;;;;;;4877579;29;20041;-64
2021/03/18 08:39:13;;;;;;;12.05;4.72;;;5.50;97.00;;;;;;4875148;29;20033;-67
2021/03/18 08:41:44;;;;;;;9.77;4.10;;;5.70;96.90;;;;;;4886174;29;20271;-64
2021/03/18 08:44:31;;;;;;;10.93;4.32;;;5.90;96.10;;;;;;4882996;29;20032;-64
2021/03/18 08:47:03;;;;;;;11.80;5.40;;;5.70;96.80;;;;;;4885250;29;20092;-64
2021/03/18 08:49:38;;;;;;;;;;;6.20;96.70;;;;;;4864541;29;20064;-63
2021/03/18 08:52:09;;;;;;;12.50;4.70;;;6.70;95.60;;;;;;4868978;29;19982;-65
2021/03/18 08:54:38;;;;;;;9.90;5.18;;;7.10;94.90;;;;;;4878307;29;20025;-65
2021/03/18 08:57:05;;;;;;;11.55;4.65;;;7.10;94.70;;;;;;4860464;29;20048;-64
2021/03/18 08:59:31;;;;;;;11.75;4.90;;;6.70;94.90;;;;;;4861677;29;20132;-64
2021/03/18 09:02:10;;;;;;;18.23;5.10;;;6.90;95.00;;;;;;4860582;29;20439;-64
2021/03/18 09:04:36;;;;;;;8.30;4.35;;;7.30;93.80;;;;;;4865369;29;20029;-65
2021/03/18 09:07:04;;;;;;;11.30;4.28;;;7.80;93.00;;;;;;4878522;29;20044;-65
2021/03/18 09:09:30;;;;;;;12.15;5.25;;;8.10;91.40;;;;;;4879074;29;20028;-65
2021/03/18 09:11:56;;;;;;;15.32;5.93;;;8.20;92.50;;;;;;4878917;29;20439;-65
2021/03/18 09:14:22;;;;;;;10.45;5.63;;;8.30;90.70;;;;;;4879368;29;20039;-64
2021/03/18 09:16:49;;;;;;;18.27;9.40;;;8.00;91.60;;;;;;4879432;29;20029;-64
2021/03/18 09:19:14;;;;;;;18.63;5.15;;;8.70;91.40;;;;;;4878948;29;20028;-64
2021/03/18 09:21:43;;;;;;;16.80;5.75;;;9.40;90.90;;;;;;4879710;29;20033;-65
2021/03/18 09:24:11;;;;;;;6.63;4.40;;;9.30;86.10;;;;;;4879213;29;20032;-64
2021/03/18 09:26:39;;;;;;;8.48;4.40;;;9.20;86.40;;;;;;4879425;29;20040;-65
2021/03/18 09:29:04;;;;;;;8.75;5.28;;;9.50;84.60;;;;;;4878643;29;20096;-66
2021/03/18 09:31:30;;;;;;;7.50;4.68;;;9.80;82.50;;;;;;4879390;29;20037;-64
2021/03/18 09:33:57;;;;;;;9.90;4.20;;;10.00;81.70;;;;;;4878290;29;20032;-66
2021/03/18 09:36:27;;;;;;;11.30;4.72;;;10.80;81.60;;;;;;4879475;29;20044;-65
2021/03/18 09:39:13;;;;;;;9.48;4.53;;;11.00;74.70;;;;;;4879535;29;20108;-68
2021/03/18 09:41:45;;;;;;;8.80;4.55;;;10.00;78.30;;;;;;4879302;29;20180;-66
2021/03/18 09:44:12;;;;;;;10.00;4.95;;;10.50;80.10;;;;;;4877971;29;20031;-65
2021/03/18 09:46:41;;;;;;;9.85;4.97;;;10.70;75.50;;;;;;4896041;29;20050;-66
2021/03/18 09:49:07;;;;;;;9.45;5.45;;;10.80;75.20;;;;;;4877507;29;20120;-66
2021/03/18 09:51:42;;;;;;;8.98;4.95;;;10.60;73.80;;;;;;4879278;29;20028;-66
2021/03/18 09:54:12;;;;;;;14.27;5.78;;;10.60;75.20;;;;;;4895452;29;20071;-67
2021/03/18 09:56:43;;;;;;;10.32;5.38;;;11.20;74.50;;;;;;4895735;29;20043;-66
2021/03/18 09:59:13;;;;;;;11.07;5.00;;;11.20;72.40;;;;;;4877989;29;20047;-66
2021/03/18 10:01:39;;;;;;;11.00;7.07;;;;;;;;;;4878271;29;20031;-67
2021/03/18 10:04:06;;;;;;;8.90;5.32;;;11.40;70.40;;;;;;4895083;29;20028;-67
2021/03/18 10:06:40;;;;;;;8.45;5.28;;;11.60;69.70;;;;;;4895019;29;20462;-66
2021/03/18 10:09:21;;;;;;;6.40;4.85;;;11.80;68.30;;;;;;4890821;29;20139;-65
2021/03/18 10:11:49;;;;;;;8.40;5.07;;;11.80;67.50;;;;;;4856833;29;20049;-66
2021/03/18 10:14:17;;;;;;;8.43;5.38;;;12.00;68.10;;;;;;4855406;29;20052;-69
2021/03/18 10:16:45;;;;;;;9.10;5.22;;;11.60;68.40;;;;;;4859966;29;20029;-64
2021/03/18 10:19:11;;;;;;;8.55;4.90;;;12.20;67.10;;;;;;4874798;29;20025;-67
2021/03/18 10:21:38;;;;;;;11.02;4.32;;;13.00;66.80;;;;;;4844623;29;20033;-69
2021/03/18 10:24:05;;;;;;;16.00;7.32;;;13.70;64.70;;;;;;4854068;29;20037;-67
2021/03/18 10:26:32;;;;;;;10.20;5.00;;;14.10;64.40;;;;;;4855687;29;20065;-64
2021/03/18 10:29:03;;;;;;;9.13;5.53;;;14.10;63.10;;;;;;4855253;29;20034;-68
2021/03/18 10:31:31;;;;;;;8.85;5.40;;;13.70;61.50;;;;;;4856956;29;20021;-64
2021/03/18 10:33:58;;;;;;;14.90;6.47;;;13.60;63.00;;;;;;4856592;29;20037;-68
2021/03/18 10:36:39;;;;;;;13.63;5.47;;;13.20;62.80;;;;;;4852970;29;20142;-68
2021/03/18 10:39:10;;;;;;;7.55;5.45;;;13.40;62.40;;;;;;4837775;29;20528;-66
2021/03/18 10:42:00;;;;;;;12.07;5.65;;;12.60;62.30;;;;;;4846761;29;20141;-65
2021/03/18 10:44:36;;;;;;;10.05;5.85;;;12.00;62.50;;;;;;4856790;29;20029;-65
2021/03/18 10:47:15;;;;;;;14.68;5.68;;;11.70;64.00;;;;;;4860035;29;20468;-64
2021/03/18 10:50:04;;;;;;;9.73;5.22;;;11.10;64.40;;;;;;4858658;29;20109;-66
2021/03/18 10:52:29;;;;;;;8.95;5.07;;;11.30;66.10;;;;;;4856351;29;20026;-66
2021/03/18 10:54:57;;;;;;;17.27;6.25;;;11.20;65.90;;;;;;4841257;29;20106;-67
2021/03/18 10:57:23;;;;;;;18.90;6.85;;;11.40;66.80;;;;;;4855376;29;20033;-65
2021/03/18 10:59:59;;;;;;;17.83;6.10;;;11.30;66.20;;;;;;4856299;29;20057;-70
2021/03/18 11:02:26;;;;;;;8.75;5.72;;;10.90;66.80;;;;;;4856620;29;20040;-70
2021/03/18 11:05:00;;;;;;;9.25;5.57;;;10.60;67.30;;;;;;4853012;29;20030;-69
2021/03/18 11:07:27;;;;;;;9.98;6.20;;;11.40;67.70;;;;;;4839355;29;20038;-69
2021/03/18 11:10:15;;;;;;;7.50;5.18;;;12.50;64.60;;;;;;4840346;29;20136;-70
2021/03/18 11:12:55;;;;;;;11.50;5.07;;;13.10;63.10;;;;;;4841339;29;20116;-69
2021/03/18 11:15:22;;;;;;;20.35;7.10;;;13.40;60.40;;;;;;4853728;29;20022;-71
2021/03/18 11:18:03;;;;;;;13.07;5.75;;;13.50;60.30;;;;;;4876714;29;20025;-69
2021/03/18 11:20:37;;;;;;;9.48;6.32;;;13.40;59.30;;;;;;4875902;29;20383;-70
2021/03/18 11:23:04;;;;;;;8.07;5.68;;;12.90;60.10;;;;;;4859091;29;20061;-71
2021/03/18 11:25:30;;;;;;;11.75;5.82;;;12.80;60.60;;;;;;4875766;29;20519;-69
2021/03/18 11:27:56;;;;;;;8.95;6.13;;;12.50;60.00;;;;;;4858308;29;20029;-68
2021/03/18 11:30:34;;;;;;;9.55;5.05;;;12.40;62.40;;;;;;4876137;29;20029;-70
2021/03/18 11:33:20;;;;;;;8.25;5.25;;;12.20;60.80;;;;;;4863035;29;20076;-70
2021/03/18 11:35:50;;;;;;;8.35;5.10;;;11.70;61.90;;;;;;4862274;29;20372;-69
2021/03/18 11:38:17;;;;;;;7.85;4.78;;;11.20;63.10;;;;;;4878802;29;20045;-70
2021/03/18 11:40:46;;;;;;;10.50;5.53;;;11.30;64.60;;;;;;4879029;29;20033;-70
2021/03/18 11:43:13;;;;;;;11.23;5.18;;;11.30;66.20;;;;;;4878925;29;20090;-70
2021/03/18 11:45:39;;;;;;;8.68;5.90;;;11.10;66.00;;;;;;4862628;29;20048;-71
2021/03/18 11:48:06;;;;;;;10.82;5.82;;;11.10;66.10;;;;;;4862306;29;20033;-69
2021/03/18 11:50:33;;;;;;;13.13;6.68;;;11.00;66.90;;;;;;4879363;29;20096;-70
2021/03/18 11:52:59;;;;;;;15.88;6.25;;;11.10;66.90;;;;;;4862043;29;20391;-70
2021/03/18 11:55:26;;;;;;;5.10;4.60;;;11.00;65.00;;;;;;4861540;29;20033;-69
2021/03/18 11:57:57;;;;;;;11.55;4.95;;;10.80;64.90;;;;;;4879663;29;20041;-70
2021/03/18 12:00:27;;;;;;;11.20;5.93;;;10.40;67.50;;;;;;4862284;29;20100;-71
2021/03/18 12:02:55;;;;;;;8.55;5.20;;;10.00;72.00;;;;;;4879287;29;20117;-70
2021/03/18 12:05:21;;;;;;;11.50;5.63;;;10.00;75.80;;;;;;4867821;29;20250;-70
2021/03/18 12:07:46;;;;;;;12.52;6.00;;;9.90;80.40;;;;;;4843713;29;20550;-70
2021/03/18 12:10:13;;;;;;;7.85;4.72;;;9.80;86.80;;;;;;4870098;29;20392;-70
2021/03/18 12:12:39;;;;;;;9.52;6.10;;;9.80;92.00;;;;;;4877915;29;20057;-67
2021/03/18 12:15:07;;;;;;;10.00;5.28;;;9.90;93.70;;;;;;4864572;29;20065;-67
2021/03/18 12:17:33;;;;;;;11.38;7.07;;;9.90;94.10;;;;;;4878514;29;20124;-67
2021/03/18 12:19:59;;;;;;;9.73;5.35;;;9.80;94.60;;;;;;4878639;29;20097;-68
2021/03/18 12:22:25;;;;;;;12.32;6.00;;;9.90;94.70;;;;;;4860799;29;20166;-68
2021/03/18 12:24:50;;;;;;;22.13;6.43;;;10.00;93.20;;;;;;4861841;29;20072;-68
2021/03/18 12:27:16;;;;;;;15.18;6.65;;;10.30;91.30;;;;;;4861272;29;20047;-69
2021/03/18 12:29:42;;;;;;;8.15;5.45;;;10.30;90.60;;;;;;4861158;29;20120;-70
2021/03/18 12:32:08;;;;;;;11.13;5.47;;;11.30;90.40;;;;;;4861022;29;20024;-71
2021/03/18 12:34:34;;;;;;;14.82;6.65;;;11.90;86.60;;;;;;4861891;29;20383;-69
2021/03/18 12:37:00;;;;;;;7.03;5.03;;;12.40;81.40;;;;;;4859965;29;20025;-70
2021/03/18 12:39:25;;;;;;;9.15;6.20;;;12.80;78.40;;;;;;4859923;29;20044;-69
2021/03/18 12:41:51;;;;;;;15.60;6.15;;;12.50;73.70;;;;;;4860060;29;20029;-70
2021/03/18 12:44:17;;;;;;;7.55;5.35;;;12.00;74.30;;;;;;4876988;29;20044;-69
2021/03/18 12:46:43;;;;;;;11.68;6.70;;;11.40;76.30;;;;;;4860399;29;20396;-69
2021/03/18 12:49:09;;;;;;;8.30;5.82;;;11.50;78.00;;;;;;4877399;29;20036;-68
2021/03/18 12:51:36;;;;;;;7.38;5.85;;;11.40;78.60;;;;;;4860614;29;20036;-71
2021/03/18 12:54:02;;;;;;;7.10;5.03;;;11.50;77.00;;;;;;4877472;29;20036;-69
2021/03/18 12:56:28;;;;;;;5.45;4.22;;;11.60;78.00;;;;;;4860579;29;20064;-70
2021/03/18 12:58:54;;;;;;;5.32;4.00;;;10.50;82.10;;;;;;4860994;29;20671;-71
2021/03/18 13:01:20;;;;;;;5.80;4.10;;;10.30;87.20;;;;;;4868348;29;20036;-69